Report METAR

 

LJLJ - Ljubljana/Brnik, Slovenia
Distance from station: O 41km
Dati ricevuti: 04/10/2022 14:00
Parz. nuvoloso
Parz. nuvoloso
 Vento da E
Vento: E 7 km/h
Temperatura: 17°C
P.to Rugiada: 8°C
Umidità: 56%
Barometro: 1023 hPa
Nuvole: Parz. nuvoloso
Visibility: 10 km
Cloud details: Few Clouds 1158 m
Parz. nuvoloso 6401 m
2022/10/04 12:00 LJLJ 041200Z 10004KT 070V150 9999 FEW038 SCT210 17/08 Q1023 NOSIG
LJMB - Maribor, Slovenia
Distance from station: NE 63km
Dati ricevuti: 04/10/2022 14:00
Sereno
Sereno
 Vento da SE
Vento: SE 7 km/h
Temperatura: 19°C
P.to Rugiada: 4°C
Umidità: 37%
Barometro: 1023 hPa
Summary: Sereno
Visibility: superiore a 10 km
2022/10/04 12:00 LJMB 041200Z 13004KT 080V190 CAVOK 19/04 Q1023
 
LJPZ - Portoroz, Slovenia
Distance from station: SO 130km
Dati ricevuti: 04/10/2022 14:00
Molto nuvoloso
Molto nuvoloso
 Vento da S
Vento: S 11 km/h
Temperatura: 21°C
P.to Rugiada: 13°C
Umidità: 60%
Barometro: 1022 hPa
Nuvole: Molto nuvoloso
Visibility: 10 km
Cloud details: Parz. nuvoloso 1219 m
Molto nuvoloso 1524 m
2022/10/04 12:00 LJPZ 041200Z 19006KT 150V240 9999 SCT040 BKN050 21/13 Q1022
LJCE - Cerklje, Slovenia
Distance from station: ESE 49km
Dati ricevuti: 04/10/2022 14:00
Parz. nuvoloso
Parz. nuvoloso
 Vento da Variabile
Vento: Variabile 4 km/h
Temperatura: 19°C
P.to Rugiada: 7°C
Umidità: 46%
Barometro: 1023 hPa
Nuvole: Parz. nuvoloso
Visibility: 10 km
Cloud details: Few Clouds 1341 m
Parz. nuvoloso 1829 m
2022/10/04 12:00 LJCE 041200Z VRB02KT 9999 FEW044 SCT060 19/07 Q1023 RMK BLU
 
LDZA - Zagreb/Pleso, Croatia
Distance from station: ESE 96km
Dati ricevuti: 04/10/2022 14:00
Sereno
Sereno
 Vento da Variabile
Vento: Variabile 4 km/h
Temperatura: 20°C
P.to Rugiada: 5°C
Umidità: 38%
Barometro: 1023 hPa
Summary: Sereno
Visibility: superiore a 10 km
2022/10/04 12:00 LDZA 041200Z VRB02KT CAVOK 20/05 Q1023 NOSIG
LDRI - Rijeka/Omisalj, Croatia
Distance from station: SSO 109km
Dati ricevuti: 04/10/2022 14:00
Few Clouds
Few Clouds
 Vento da O
Vento: O 7 km/h
Temperatura: 21°C
P.to Rugiada: 9°C
Umidità: 46%
Barometro: 1023 hPa
Nuvole: Few Clouds
Visibility: 10 km
Cloud details: Few Clouds 1097 m
2022/10/04 12:00 LDRI 041200Z 26004KT 210V330 9999 FEW036 21/09 Q1023
 
LDPL - Pula, Croatia
Distance from station: SSO 164km
Dati ricevuti: 04/10/2022 14:00
Few Clouds
Few Clouds
 Vento da S
Vento: S 9 km/h
Temperatura: 21°C
P.to Rugiada: 11°C
Umidità: 53%
Barometro: 1023 hPa
Nuvole: Few Clouds
Visibility: 10 km
Cloud details: Few Clouds 1067 m
2022/10/04 12:00 LDPL 041200Z 19005KT 130V250 9999 FEW035 21/11 Q1023 NOSIG
LOWK - Klagenfurt(Civ/M, Austria
Distance from station: NO 76km
Dati ricevuti: 04/10/2022 13:50
Few Clouds
Few Clouds
 Vento da Variabile
Vento: Variabile 4 km/h
Temperatura: 16°C
P.to Rugiada: 6°C
Umidità: 52%
Barometro: 1024 hPa
Nuvole: Few Clouds
Visibility: 10 km
Cloud details: Few Clouds 1829 m
2022/10/04 11:50 LOWK 041150Z VRB02KT 9999 FEW060 16/06 Q1024 NOSIG
 
LOWG - Graz (mil/Civ), Austria
Distance from station: NNE 100km
Dati ricevuti: 04/10/2022 13:50
Few Clouds
Few Clouds
 Vento da Variabile
Vento: Variabile 6 km/h
Temperatura: 18°C
P.to Rugiada: 4°C
Umidità: 40%
Barometro: 1023 hPa
Nuvole: Few Clouds
Visibility: 10 km
Cloud details: Few Clouds 1829 m
2022/10/04 11:50 LOWG 041150Z VRB03KT 9999 FEW060 18/04 Q1023 NOSIG
LOAN - Wr.neustadt East, Austria
Distance from station: NNE 212km
Dati ricevuti: 04/10/2022 14:00
Molto nuvoloso
Molto nuvoloso
 Vento da NNO
Vento: NNO 19 km/h
Nuvole: Molto nuvoloso
Visibility: 10 km
Cloud details: Few Clouds 1067 m
Molto nuvoloso 1829 m
2022/10/04 12:00 LOAN 041200Z 33010KT 9999 FEW035 BKN060
 
LIPQ - Ronchi Legionari, Italy
Distance from station: SO 35km
Dati ricevuti: 04/10/2022 13:50
Molto nuvoloso
Molto nuvoloso
 Vento da S
Vento: S 6 km/h
Temperatura: 20°C
P.to Rugiada: 13°C
Umidità: 64%
Barometro: 1022 hPa
Nuvole: Molto nuvoloso
Visibility: 10 km
Cloud details: Molto nuvoloso 975 m
2022/10/04 11:50 LIPQ 041150Z AUTO 18003KT 150V220 9999 BKN032/// 20/13 Q1022
LIVT - Trieste, Italy
Distance from station: OSO 109km
Dati ricevuti: 04/10/2022 13:55
Parz. nuvoloso
Parz. nuvoloso
 Vento da Variabile
Vento: Variabile 2 km/h
Temperatura: 21°C
P.to Rugiada: 12°C
Umidità: 57%
Barometro: 1022 hPa
Nuvole: Parz. nuvoloso
Visibility: 10 km
Cloud details: Parz. nuvoloso 1219 m
2022/10/04 11:55 LIVT 041155Z VRB01KT 9999 SCT040 21/12 Q1022
 
LIVO - Tarvisio, Italy
Distance from station: NNO 49km
Dati ricevuti: 04/10/2022 13:55
Sereno
Sereno
 Vento da calmo
Vento: Calma
Temperatura: 12°C
P.to Rugiada: 6°C
Umidità: 67%
Barometro: 1022 hPa
Summary: Sereno
Visibility: superiore a 10 km
2022/10/04 11:55 LIVO 041155Z 00000KT CAVOK 12/06 Q1022
LIPZ - Venezia/Tessera, Italy
Distance from station: OSO 217km
Dati ricevuti: 04/10/2022 13:50
Few Clouds
Few Clouds
 Vento da E
Vento: E 11 km/h
Temperatura: 21°C
P.to Rugiada: 14°C
Umidità: 64%
Barometro: 1022 hPa
Nuvole: Few Clouds
Visibility: 10 km
Cloud details: Few Clouds 1067 m
2022/10/04 11:50 LIPZ 041150Z 10006KT 060V120 9999 FEW035 21/14 Q1022 NOSIG
 
LHSM - Balaton, Hungary
Distance from station: ENE 177km
Dati ricevuti: 04/10/2022 13:45
Sereno
Sereno
 Vento da NNO
Vento: NNO 17 km/h
Temperatura: 17°C
P.to Rugiada: 7°C
Umidità: 52%
Barometro: 1023 hPa
Summary: Sereno
Visibility: superiore a 10 km
2022/10/04 11:45 LHSM 041145Z AUTO 33009KT 300V010 CAVOK 17/07 Q1023 NOSIG